Time,TemperatureF,DewpointF,PressureIn,WindDirection,WindDirectionDegrees,WindSpeedMPH,WindSpeedGustMPH,Humidity,HourlyPrecipIn,Conditions,Clouds,dailyrainin,SoftwareType,DateUTC
2013-03-15 00:00:00,20.4,15.2,30.11,West,271,1.0,2.0,80,0.00,,---,0.02,VWS V14.01,2013-03-15 04:00:00,
2013-03-15 00:02:00,20.4,15.2,30.11,West,271,1.0,2.0,80,0.00,,---,0.02,VWS V14.01,2013-03-15 04:02:00,
2013-03-15 00:06:00,20.5,15.3,30.11,West,271,0.0,2.0,80,0.00,,---,0.00,VWS V14.01,2013-03-15 04:06:00,
2013-03-15 00:12:00,20.4,15.2,30.11,West,271,1.0,2.0,80,0.00,,---,0.00,VWS V14.01,2013-03-15 04:12:00,
2013-03-15 00:18:00,20.2,15.0,30.10,West,271,1.0,3.0,80,0.00,,---,0.00,VWS V14.01,2013-03-15 04:18:00,
2013-03-15 00:24:00,20.0,14.8,30.10,West,271,0.0,3.0,80,0.00,,---,0.00,VWS V14.01,2013-03-15 04:24:00,
2013-03-15 00:30:00,19.9,15.0,30.10,West,271,0.0,3.0,81,0.00,,---,0.00,VWS V14.01,2013-03-15 04:30:00,
2013-03-15 00:36:00,19.7,14.8,30.10,West,271,0.0,1.0,81,0.00,,---,0.00,VWS V14.01,2013-03-15 04:36:00,
2013-03-15 00:42:00,19.7,14.8,30.10,West,271,0.0,1.0,81,0.00,,---,0.00,VWS V14.01,2013-03-15 04:42:00,
2013-03-15 00:48:00,19.7,15.1,30.09,West,271,0.0,2.0,82,0.00,,---,0.00,VWS V14.01,2013-03-15 04:48:00,
2013-03-15 00:55:00,19.7,15.1,30.09,West,271,0.0,2.0,82,0.00,,---,0.00,VWS V14.01,2013-03-15 04:55:00,
2013-03-15 01:02:00,19.7,15.1,30.09,West,271,0.0,2.0,82,0.00,,---,0.00,VWS V14.01,2013-03-15 05:02:00,
2013-03-15 01:07:00,19.5,14.9,30.09,West,271,0.0,3.0,82,0.00,,---,0.00,VWS V14.01,2013-03-15 05:07:00,
2013-03-15 01:13:00,19.5,14.9,30.09,West,271,0.0,3.0,82,0.00,,---,0.00,VWS V14.01,2013-03-15 05:13:00,
2013-03-15 01:19:00,19.4,14.8,30.09,West,271,0.0,3.0,82,0.00,,---,0.00,VWS V14.01,2013-03-15 05:19:00,
2013-03-15 01:25:00,19.2,14.6,30.09,West,271,0.0,3.0,82,0.00,,---,0.00,VWS V14.01,2013-03-15 05:25:00,
2013-03-15 01:31:00,19.1,14.8,30.09,West,271,0.0,3.0,83,0.00,,---,0.00,VWS V14.01,2013-03-15 05:31:00,
2013-03-15 01:37:00,19.2,14.9,30.09,West,271,0.0,1.0,83,0.00,,---,0.00,VWS V14.01,2013-03-15 05:37:00,
2013-03-15 01:43:00,19.2,14.9,30.09,West,271,0.0,1.0,83,0.00,,---,0.00,VWS V14.01,2013-03-15 05:43:00,
2013-03-15 01:49:00,19.2,14.9,30.09,West,271,0.0,1.0,83,0.00,,---,0.00,VWS V14.01,2013-03-15 05:49:00,
2013-03-15 01:56:00,19.1,14.5,30.08,West,271,0.0,1.0,82,0.00,,---,0.00,VWS V14.01,2013-03-15 05:56:00,
2013-03-15 02:02:00,18.9,14.6,30.08,West,271,0.0,1.0,83,0.00,,---,0.00,VWS V14.01,2013-03-15 06:02:00,
2013-03-15 02:10:00,18.8,14.5,30.08,West,271,0.0,1.0,83,0.00,,---,0.00,VWS V14.01,2013-03-15 06:10:00,
2013-03-15 02:16:00,18.7,14.4,30.08,West,271,0.0,1.0,83,0.00,,---,0.00,VWS V14.01,2013-03-15 06:16:00,
2013-03-15 02:22:00,18.6,14.3,30.08,West,271,0.0,1.0,83,0.00,,---,0.00,VWS V14.01,2013-03-15 06:22:00,
2013-03-15 02:28:00,18.6,14.6,30.08,West,271,0.0,1.0,84,0.00,,---,0.00,VWS V14.01,2013-03-15 06:28:00,
2013-03-15 02:34:00,18.6,14.6,30.08,West,271,0.0,1.0,84,0.00,,---,0.00,VWS V14.01,2013-03-15 06:34:00,
2013-03-15 02:40:00,18.5,14.5,30.07,West,271,0.0,1.0,84,0.00,,---,0.00,VWS V14.01,2013-03-15 06:40:00,
2013-03-15 02:46:00,18.5,14.5,30.07,West,271,0.0,1.0,84,0.00,,---,0.00,VWS V14.01,2013-03-15 06:46:00,
2013-03-15 02:52:00,18.6,14.6,30.07,West,271,0.0,1.0,84,0.00,,---,0.00,VWS V14.01,2013-03-15 06:52:00,
2013-03-15 02:58:00,18.8,14.8,30.06,West,271,0.0,2.0,84,0.00,,---,0.00,VWS V14.01,2013-03-15 06:58:00,
2013-03-15 03:04:00,19.1,15.1,30.06,SSW,202,1.0,1.0,84,0.00,,---,0.00,VWS V14.01,2013-03-15 07:04:00,
2013-03-15 03:11:00,19.5,15.2,30.05,SSW,202,0.0,1.0,83,0.00,,---,0.00,VWS V14.01,2013-03-15 07:11:00,
2013-03-15 03:17:00,19.8,15.5,30.06,WSW,248,2.0,3.0,83,0.00,,---,0.00,VWS V14.01,2013-03-15 07:17:00,
2013-03-15 03:23:00,20.4,15.8,30.05,WSW,248,0.0,3.0,82,0.00,,---,0.00,VWS V14.01,2013-03-15 07:23:00,
2013-03-15 03:29:00,20.9,16.0,30.05,WSW,242,0.0,3.0,81,0.00,,---,0.00,VWS V14.01,2013-03-15 07:29:00,
2013-03-15 03:35:00,21.3,16.1,30.05,WSW,242,2.0,3.0,80,0.00,,---,0.00,VWS V14.01,2013-03-15 07:35:00,
2013-03-15 03:43:00,21.4,16.2,30.04,WSW,242,2.0,3.0,80,0.00,,---,0.00,VWS V14.01,2013-03-15 07:43:00,
2013-03-15 03:49:00,21.3,16.1,30.04,WSW,242,2.0,3.0,80,0.00,,---,0.00,VWS V14.01,2013-03-15 07:49:00,
2013-03-15 03:55:00,21.2,16.0,30.03,WSW,242,0.0,3.0,80,0.00,,---,0.00,VWS V14.01,2013-03-15 07:55:00,
2013-03-15 04:01:00,21.2,16.3,30.02,WSW,242,1.0,3.0,81,0.00,,---,0.00,VWS V14.01,2013-03-15 08:01:00,
2013-03-15 04:07:00,21.4,16.5,30.02,WSW,242,0.0,2.0,81,0.00,,---,0.00,VWS V14.01,2013-03-15 08:07:00,
2013-03-15 04:14:00,21.7,16.8,30.01,WSW,242,0.0,3.0,81,0.00,,---,0.00,VWS V14.01,2013-03-15 08:14:00,
2013-03-15 04:20:00,22.4,17.2,30.01,WSW,250,3.0,5.0,80,0.00,,---,0.00,VWS V14.01,2013-03-15 08:20:00,
2013-03-15 04:26:00,22.7,17.5,30.01,WSW,250,3.0,5.0,80,0.00,,---,0.00,VWS V14.01,2013-03-15 08:26:00,
2013-03-15 04:32:00,22.9,17.4,30.01,West,272,2.0,5.0,79,0.00,,---,0.00,VWS V14.01,2013-03-15 08:32:00,
2013-03-15 04:38:00,23.0,17.5,30.01,West,263,3.0,4.0,79,0.00,,---,0.00,VWS V14.01,2013-03-15 08:38:00,
2013-03-15 04:44:00,23.0,17.5,30.00,WSW,257,2.0,5.0,79,0.00,,---,0.00,VWS V14.01,2013-03-15 08:44:00,
2013-03-15 04:50:00,23.0,17.8,30.00,WSW,240,3.0,5.0,80,0.00,,---,0.00,VWS V14.01,2013-03-15 08:50:00,
2013-03-15 04:56:00,23.0,17.5,30.01,West,268,3.0,5.0,79,0.00,,---,0.00,VWS V14.01,2013-03-15 08:56:00,
2013-03-15 05:02:00,22.9,17.7,30.01,West,262,1.0,5.0,80,0.00,,---,0.00,VWS V14.01,2013-03-15 09:02:00,
2013-03-15 05:07:00,22.8,17.6,30.01,West,261,2.0,4.0,80,0.00,,---,0.00,VWS V14.01,2013-03-15 09:07:00,
2013-03-15 05:13:00,22.8,17.6,30.00,West,262,1.0,4.0,80,0.00,,---,0.00,VWS V14.01,2013-03-15 09:13:00,
2013-03-15 05:19:00,22.8,17.6,30.00,West,262,3.0,4.0,80,0.00,,---,0.00,VWS V14.01,2013-03-15 09:19:00,
2013-03-15 05:25:00,22.9,17.7,30.00,West,262,0.0,4.0,80,0.00,,---,0.00,VWS V14.01,2013-03-15 09:25:00,
2013-03-15 05:31:00,23.2,18.0,30.00,West,273,0.0,4.0,80,0.00,,---,0.00,VWS V14.01,2013-03-15 09:31:00,
2013-03-15 05:37:00,23.4,18.1,29.99,West,273,4.0,5.0,80,0.00,,---,0.00,VWS V14.01,2013-03-15 09:37:00,
2013-03-15 05:43:00,23.7,18.5,29.99,WSW,246,1.0,5.0,80,0.00,,---,0.00,VWS V14.01,2013-03-15 09:43:00,
2013-03-15 05:49:00,24.0,18.7,29.99,West,268,4.0,6.0,80,0.00,,---,0.00,VWS V14.01,2013-03-15 09:49:00,
2013-03-15 05:55:00,24.3,19.0,29.99,SW,219,1.0,6.0,80,0.00,,---,0.00,VWS V14.01,2013-03-15 09:55:00,
2013-03-15 06:01:00,24.5,18.9,29.99,WSW,238,1.0,7.0,79,0.00,,---,0.00,VWS V14.01,2013-03-15 10:01:00,
2013-03-15 06:07:00,24.8,19.2,29.99,West,279,3.0,4.0,79,0.00,,---,0.00,VWS V14.01,2013-03-15 10:07:00,
2013-03-15 06:13:00,24.9,19.3,29.99,SW,227,4.0,6.0,79,0.00,,---,0.00,VWS V14.01,2013-03-15 10:13:00,
2013-03-15 06:19:00,25.0,19.4,29.99,West,267,6.0,6.0,79,0.00,,---,0.00,VWS V14.01,2013-03-15 10:19:00,
2013-03-15 06:26:00,25.1,19.5,29.99,WNW,286,2.0,6.0,79,0.00,,---,0.00,VWS V14.01,2013-03-15 10:26:00,
2013-03-15 06:31:00,25.0,19.4,29.99,West,266,2.0,6.0,79,0.00,,---,0.00,VWS V14.01,2013-03-15 10:31:00,
2013-03-15 06:38:00,24.9,19.3,29.98,West,265,2.0,6.0,79,0.00,,---,0.00,VWS V14.01,2013-03-15 10:38:00,
2013-03-15 06:44:00,25.0,19.4,29.98,WSW,242,3.0,9.0,79,0.00,,---,0.00,VWS V14.01,2013-03-15 10:44:00,
2013-03-15 06:50:00,25.1,19.5,29.98,WSW,244,4.0,9.0,79,0.00,,---,0.00,VWS V14.01,2013-03-15 10:50:00,
2013-03-15 06:56:00,25.1,19.5,29.98,West,279,2.0,9.0,79,0.00,,---,0.00,VWS V14.01,2013-03-15 10:56:00,
2013-03-15 07:02:00,25.4,19.8,29.97,WNW,286,6.0,10.0,79,0.00,,---,0.00,VWS V14.01,2013-03-15 11:02:00,
2013-03-15 07:08:00,25.5,19.9,29.97,West,261,2.0,9.0,79,0.00,,---,0.00,VWS V14.01,2013-03-15 11:08:00,
2013-03-15 07:14:00,25.7,20.1,29.97,WNW,294,6.0,9.0,79,0.00,,---,0.00,VWS V14.01,2013-03-15 11:14:00,
2013-03-15 07:20:00,25.6,20.0,29.97,WSW,244,3.0,9.0,79,0.00,,---,0.00,VWS V14.01,2013-03-15 11:20:00,
2013-03-15 07:26:00,25.8,20.2,29.97,West,279,3.0,9.0,79,0.00,,---,0.00,VWS V14.01,2013-03-15 11:26:00,
2013-03-15 07:32:00,25.9,20.3,29.97,SW,219,3.0,9.0,79,0.00,,---,0.00,VWS V14.01,2013-03-15 11:32:00,
2013-03-15 07:37:00,26.0,20.7,29.96,WSW,249,3.0,9.0,80,0.00,,---,0.00,VWS V14.01,2013-03-15 11:37:00,
2013-03-15 07:43:00,26.0,20.7,29.96,WSW,257,3.0,9.0,80,0.00,,---,0.00,VWS V14.01,2013-03-15 11:43:00,
2013-03-15 07:49:00,26.1,20.8,29.96,West,262,3.0,12.0,80,0.00,,---,0.00,VWS V14.01,2013-03-15 11:49:00,
2013-03-15 07:55:00,26.2,20.6,29.96,WSW,250,4.0,12.0,79,0.00,,---,0.00,VWS V14.01,2013-03-15 11:55:00,
2013-03-15 08:02:00,26.4,20.8,29.95,SW,225,1.0,12.0,79,0.00,,---,0.00,VWS V14.01,2013-03-15 12:02:00,
2013-03-15 08:07:00,26.6,21.0,29.95,SW,236,7.0,13.0,79,0.00,,---,0.00,VWS V14.01,2013-03-15 12:07:00,
2013-03-15 08:13:00,26.7,21.1,29.95,West,275,6.0,13.0,79,0.00,,---,0.00,VWS V14.01,2013-03-15 12:13:00,
2013-03-15 08:19:00,26.9,21.0,29.95,WSW,255,5.0,13.0,78,0.00,,---,0.00,VWS V14.01,2013-03-15 12:19:00,
2013-03-15 08:25:00,27.0,21.1,29.94,WNW,290,8.0,13.0,78,0.00,,---,0.00,VWS V14.01,2013-03-15 12:25:00,
2013-03-15 08:31:00,27.2,21.3,29.94,West,273,6.0,13.0,78,0.00,,---,0.00,VWS V14.01,2013-03-15 12:31:00,
2013-03-15 08:37:00,27.4,21.5,29.94,WSW,253,6.0,17.0,78,0.00,,---,0.00,VWS V14.01,2013-03-15 12:37:00,
2013-03-15 08:43:00,27.4,21.1,29.94,West,259,6.0,17.0,77,0.00,,---,0.00,VWS V14.01,2013-03-15 12:43:00,
2013-03-15 08:49:00,27.6,21.6,29.93,WSW,240,5.0,17.0,78,0.00,,---,0.00,VWS V14.01,2013-03-15 12:49:00,
2013-03-15 08:55:00,27.7,21.8,29.94,SW,233,2.0,17.0,78,0.00,,---,0.00,VWS V14.01,2013-03-15 12:55:00,
2013-03-15 09:02:00,27.8,21.5,29.93,South,184,6.0,17.0,77,0.00,,---,0.00,VWS V14.01,2013-03-15 13:02:00,
2013-03-15 09:08:00,28.0,21.7,29.93,WSW,255,1.0,14.0,77,0.00,,---,0.00,VWS V14.01,2013-03-15 13:08:00,
2013-03-15 09:14:00,28.1,21.8,29.93,SSW,213,12.0,14.0,77,0.00,,---,0.00,VWS V14.01,2013-03-15 13:14:00,
2013-03-15 09:20:00,28.2,21.9,29.93,West,274,3.0,14.0,77,0.00,,---,0.00,VWS V14.01,2013-03-15 13:20:00,
2013-03-15 09:26:00,28.4,22.4,29.93,West,264,5.0,14.0,78,0.00,,---,0.00,VWS V14.01,2013-03-15 13:26:00,
2013-03-15 09:32:00,28.7,22.7,29.93,SW,234,5.0,14.0,78,0.00,,---,0.00,VWS V14.01,2013-03-15 13:32:00,
2013-03-15 09:38:00,29.0,22.7,29.93,West,259,3.0,13.0,77,0.00,,---,0.00,VWS V14.01,2013-03-15 13:38:00,
2013-03-15 09:44:00,29.3,23.0,29.92,West,281,14.0,16.0,77,0.00,,---,0.00,VWS V14.01,2013-03-15 13:44:00,
2013-03-15 09:50:00,29.5,23.2,29.92,West,279,7.0,16.0,77,0.00,,---,0.00,VWS V14.01,2013-03-15 13:50:00,
2013-03-15 09:56:00,29.7,23.1,29.92,West,268,3.0,16.0,76,0.00,,---,0.00,VWS V14.01,2013-03-15 13:56:00,
2013-03-15 10:02:00,29.9,23.3,29.92,West,259,7.0,16.0,76,0.00,,---,0.00,VWS V14.01,2013-03-15 14:02:00,
2013-03-15 10:08:00,30.3,23.7,29.92,SSW,192,4.0,14.0,76,0.00,,---,0.00,VWS V14.01,2013-03-15 14:08:00,
2013-03-15 10:14:00,30.4,24.1,29.91,WSW,245,9.0,15.0,77,0.00,,---,0.00,VWS V14.01,2013-03-15 14:14:00,
2013-03-15 10:20:00,30.6,24.0,29.91,WSW,250,8.0,15.0,76,0.00,,---,0.00,VWS V14.01,2013-03-15 14:20:00,
2013-03-15 10:27:00,30.7,24.4,29.91,West,272,9.0,15.0,77,0.00,,---,0.00,VWS V14.01,2013-03-15 14:27:00,
2013-03-15 10:32:00,30.7,24.0,29.91,WSW,243,5.0,16.0,76,0.00,,---,0.00,VWS V14.01,2013-03-15 14:32:00,
2013-03-15 10:37:00,30.8,24.5,29.91,West,261,9.0,13.0,77,0.00,,---,0.00,VWS V14.01,2013-03-15 14:37:00,
2013-03-15 10:43:00,30.8,24.5,29.91,NNE,26,6.0,13.0,77,0.00,,---,0.00,VWS V14.01,2013-03-15 14:43:00,
2013-03-15 10:49:00,30.8,24.5,29.91,SSE,163,2.0,14.0,77,0.00,,---,0.00,VWS V14.01,2013-03-15 14:49:00,
2013-03-15 10:55:00,31.0,25.0,29.91,West,264,6.0,14.0,78,0.00,,---,0.00,VWS V14.01,2013-03-15 14:55:00,
2013-03-15 11:01:00,31.0,25.3,29.90,WNW,288,8.0,14.0,79,0.00,,---,0.00,VWS V14.01,2013-03-15 15:01:00,
2013-03-15 11:07:00,30.8,26.0,29.90,West,279,7.0,13.0,82,0.00,,---,0.00,VWS V14.01,2013-03-15 15:07:00,
2013-03-15 11:13:00,30.5,26.0,29.90,West,272,3.0,13.0,83,0.00,,---,0.00,VWS V14.01,2013-03-15 15:13:00,
2013-03-15 11:19:00,30.5,26.5,29.90,West,269,6.0,13.0,85,0.00,,---,0.00,VWS V14.01,2013-03-15 15:19:00,
2013-03-15 11:25:00,30.5,26.8,29.89,West,277,11.0,13.0,86,0.00,,---,0.00,VWS V14.01,2013-03-15 15:25:00,
2013-03-15 11:31:00,30.5,27.1,29.89,West,271,4.0,13.0,87,0.00,,---,0.00,VWS V14.01,2013-03-15 15:31:00,
2013-03-15 11:38:00,30.6,27.2,29.89,WSW,248,3.0,10.0,87,0.00,,---,0.00,VWS V14.01,2013-03-15 15:38:00,
2013-03-15 11:44:00,30.6,27.5,29.89,West,261,10.0,19.0,88,0.00,,---,0.00,VWS V14.01,2013-03-15 15:44:00,
2013-03-15 11:50:00,30.8,27.4,29.89,West,269,3.0,19.0,87,0.00,,---,0.00,VWS V14.01,2013-03-15 15:50:00,
2013-03-15 11:58:00,31.5,27.5,29.88,SW,228,3.0,19.0,85,0.00,,---,0.00,VWS V14.01,2013-03-15 15:58:00,
2013-03-15 12:04:00,32.0,27.1,29.88,SW,221,11.0,13.0,82,0.01,,---,0.01,VWS V14.01,2013-03-15 16:04:00,
2013-03-15 12:10:00,32.3,27.1,29.88,West,262,4.0,18.0,81,0.01,,---,0.01,VWS V14.01,2013-03-15 16:10:00,
2013-03-15 12:16:00,32.5,26.7,29.88,NNE,22,9.0,18.0,79,0.01,,---,0.01,VWS V14.01,2013-03-15 16:16:00,
2013-03-15 12:22:00,32.6,26.8,29.88,West,259,6.0,18.0,79,0.01,,---,0.01,VWS V14.01,2013-03-15 16:22:00,
2013-03-15 12:28:00,32.8,26.7,29.88,WSW,250,11.0,18.0,78,0.01,,---,0.01,VWS V14.01,2013-03-15 16:28:00,
2013-03-15 12:34:00,33.0,26.9,29.88,West,281,3.0,14.0,78,0.01,,---,0.01,VWS V14.01,2013-03-15 16:34:00,
2013-03-15 12:41:00,33.3,26.9,29.89,WSW,255,4.0,14.0,77,0.01,,---,0.01,VWS V14.01,2013-03-15 16:41:00,
2013-03-15 12:47:00,33.4,27.0,29.88,West,275,4.0,16.0,77,0.01,,---,0.01,VWS V14.01,2013-03-15 16:47:00,
2013-03-15 12:53:00,33.4,27.3,29.88,NNE,25,10.0,16.0,78,0.01,,---,0.01,VWS V14.01,2013-03-15 16:53:00,
2013-03-15 12:59:00,33.2,27.4,29.88,West,261,4.0,17.0,79,0.01,,---,0.01,VWS V14.01,2013-03-15 16:59:00,
2013-03-15 13:05:00,33.2,28.0,29.88,West,276,4.0,7.0,81,0.00,,---,0.01,VWS V14.01,2013-03-15 17:05:00,
2013-03-15 13:13:00,32.8,27.6,29.88,West,281,15.0,17.0,81,0.00,,---,0.01,VWS V14.01,2013-03-15 17:13:00,
2013-03-15 13:19:00,32.6,28.0,29.88,West,273,7.0,17.0,83,0.00,,---,0.01,VWS V14.01,2013-03-15 17:19:00,
2013-03-15 13:25:00,32.6,28.3,29.88,NNE,22,8.0,17.0,84,0.00,,---,0.01,VWS V14.01,2013-03-15 17:25:00,
2013-03-15 13:31:00,32.7,28.7,29.88,WSW,245,11.0,17.0,85,0.00,,---,0.01,VWS V14.01,2013-03-15 17:31:00,
2013-03-15 13:37:00,32.6,28.6,29.87,West,267,7.0,13.0,85,0.00,,---,0.01,VWS V14.01,2013-03-15 17:37:00,
2013-03-15 13:43:00,32.8,29.1,29.87,West,279,6.0,13.0,86,0.00,,---,0.01,VWS V14.01,2013-03-15 17:43:00,
2013-03-15 13:50:00,32.6,28.9,29.87,WNW,287,6.0,17.0,86,0.00,,---,0.01,VWS V14.01,2013-03-15 17:50:00,
2013-03-15 13:56:00,32.6,28.9,29.87,NW,309,3.0,17.0,86,0.00,,---,0.01,VWS V14.01,2013-03-15 17:56:00,
2013-03-15 14:02:00,32.8,29.1,29.87,West,275,4.0,17.0,86,0.00,,---,0.01,VWS V14.01,2013-03-15 18:02:00,
2013-03-15 14:08:00,32.9,29.5,29.87,West,279,10.0,12.0,87,0.00,,---,0.01,VWS V14.01,2013-03-15 18:08:00,
2013-03-15 14:14:00,32.7,29.3,29.87,West,269,5.0,13.0,87,0.00,,---,0.01,VWS V14.01,2013-03-15 18:14:00,
2013-03-15 14:20:00,32.7,29.3,29.87,West,275,4.0,13.0,87,0.00,,---,0.01,VWS V14.01,2013-03-15 18:20:00,
2013-03-15 14:26:00,32.6,29.2,29.86,WNW,296,5.0,13.0,87,0.00,,---,0.01,VWS V14.01,2013-03-15 18:26:00,
2013-03-15 14:32:00,32.5,29.1,29.86,West,267,3.0,13.0,87,0.00,,---,0.01,VWS V14.01,2013-03-15 18:32:00,
2013-03-15 14:38:00,32.4,29.0,29.86,WNW,290,5.0,12.0,87,0.00,,---,0.01,VWS V14.01,2013-03-15 18:38:00,
2013-03-15 14:44:00,32.4,29.2,29.85,WSW,254,2.0,12.0,88,0.00,,---,0.01,VWS V14.01,2013-03-15 18:44:00,
2013-03-15 14:51:00,32.5,29.4,29.85,West,269,2.0,12.0,88,0.00,,---,0.01,VWS V14.01,2013-03-15 18:51:00,
2013-03-15 14:57:00,32.4,28.7,29.85,West,276,11.0,13.0,86,0.00,,---,0.01,VWS V14.01,2013-03-15 18:57:00,
2013-03-15 15:03:00,32.5,28.8,29.85,North,360,10.0,12.0,86,0.00,,---,0.01,VWS V14.01,2013-03-15 19:03:00,
2013-03-15 15:09:00,32.6,29.2,29.85,West,260,5.0,12.0,87,0.00,,---,0.01,VWS V14.01,2013-03-15 19:09:00,
2013-03-15 15:15:00,32.6,29.2,29.84,WNW,289,9.0,12.0,87,0.00,,---,0.01,VWS V14.01,2013-03-15 19:15:00,
2013-03-15 15:21:00,32.5,29.1,29.85,NE,34,7.0,12.0,87,0.00,,---,0.01,VWS V14.01,2013-03-15 19:21:00,
2013-03-15 15:27:00,32.4,29.0,29.85,WSW,250,6.0,12.0,87,0.00,,---,0.01,VWS V14.01,2013-03-15 19:27:00,
2013-03-15 15:33:00,32.3,29.1,29.85,NW,316,3.0,6.0,88,0.00,,---,0.01,VWS V14.01,2013-03-15 19:33:00,
2013-03-15 15:39:00,32.5,29.4,29.85,WSW,245,6.0,11.0,88,0.00,,---,0.01,VWS V14.01,2013-03-15 19:39:00,
2013-03-15 15:45:00,32.4,29.2,29.85,SW,214,9.0,11.0,88,0.00,,---,0.01,VWS V14.01,2013-03-15 19:45:00,
2013-03-15 15:51:00,32.3,29.1,29.84,West,260,6.0,11.0,88,0.00,,---,0.01,VWS V14.01,2013-03-15 19:51:00,
2013-03-15 15:57:00,32.2,29.3,29.85,West,264,4.0,11.0,89,0.00,,---,0.01,VWS V14.01,2013-03-15 19:57:00,
2013-03-15 16:03:00,32.1,29.2,29.85,WNW,287,5.0,8.0,89,0.00,,---,0.01,VWS V14.01,2013-03-15 20:03:00,
2013-03-15 16:09:00,32.1,29.2,29.85,West,276,4.0,15.0,89,0.00,,---,0.01,VWS V14.01,2013-03-15 20:09:00,
2013-03-15 16:15:00,32.1,29.2,29.85,WSW,252,2.0,15.0,89,0.00,,---,0.01,VWS V14.01,2013-03-15 20:15:00,
2013-03-15 16:22:00,32.2,29.3,29.84,NW,306,2.0,15.0,89,0.00,,---,0.01,VWS V14.01,2013-03-15 20:22:00,
2013-03-15 16:28:00,32.3,29.7,29.84,West,277,3.0,15.0,90,0.00,,---,0.01,VWS V14.01,2013-03-15 20:28:00,
2013-03-15 16:34:00,32.4,29.8,29.84,West,259,7.0,11.0,90,0.00,,---,0.01,VWS V14.01,2013-03-15 20:34:00,
2013-03-15 16:40:00,32.3,29.7,29.84,West,281,4.0,12.0,90,0.00,,---,0.01,VWS V14.01,2013-03-15 20:40:00,
2013-03-15 16:46:00,32.3,29.7,29.84,West,265,5.0,12.0,90,0.00,,---,0.01,VWS V14.01,2013-03-15 20:46:00,
2013-03-15 16:52:00,32.3,29.7,29.84,West,263,6.0,12.0,90,0.00,,---,0.01,VWS V14.01,2013-03-15 20:52:00,
2013-03-15 16:58:00,32.3,29.7,29.84,West,277,3.0,12.0,90,0.00,,---,0.01,VWS V14.01,2013-03-15 20:58:00,
2013-03-15 17:04:00,32.3,29.7,29.84,WNW,286,3.0,5.0,90,0.00,,---,0.01,VWS V14.01,2013-03-15 21:04:00,
2013-03-15 17:10:00,32.2,29.6,29.85,WNW,296,5.0,10.0,90,0.00,,---,0.01,VWS V14.01,2013-03-15 21:10:00,
2013-03-15 17:16:00,32.1,29.5,29.84,West,276,2.0,10.0,90,0.00,,---,0.01,VWS V14.01,2013-03-15 21:16:00,
2013-03-15 17:23:00,32.0,29.7,29.85,West,277,3.0,10.0,91,0.00,,---,0.01,VWS V14.01,2013-03-15 21:23:00,
2013-03-15 17:29:00,31.9,29.6,29.85,West,261,5.0,10.0,91,0.00,,---,0.01,VWS V14.01,2013-03-15 21:29:00,
2013-03-15 17:35:00,31.8,29.5,29.85,WSW,258,2.0,6.0,91,0.00,,---,0.01,VWS V14.01,2013-03-15 21:35:00,
2013-03-15 17:41:00,31.7,29.4,29.85,West,273,0.0,9.0,91,0.00,,---,0.01,VWS V14.01,2013-03-15 21:41:00,
2013-03-15 17:47:00,31.5,29.2,29.86,West,279,3.0,10.0,91,0.00,,---,0.01,VWS V14.01,2013-03-15 21:47:00,
2013-03-15 17:53:00,31.5,29.2,29.85,WNW,301,3.0,10.0,91,0.00,,---,0.01,VWS V14.01,2013-03-15 21:53:00,
2013-03-15 17:59:00,31.4,29.1,29.86,WSW,250,2.0,10.0,91,0.00,,---,0.01,VWS V14.01,2013-03-15 21:59:00,
2013-03-15 18:05:00,31.2,28.9,29.86,NW,315,2.0,6.0,91,0.00,,---,0.01,VWS V14.01,2013-03-15 22:05:00,
2013-03-15 18:11:00,31.1,28.8,29.86,WNW,283,1.0,6.0,91,0.00,,---,0.01,VWS V14.01,2013-03-15 22:11:00,
2013-03-15 18:17:00,31.1,28.8,29.86,NW,314,3.0,6.0,91,0.00,,---,0.01,VWS V14.01,2013-03-15 22:17:00,
2013-03-15 18:23:00,31.0,28.7,29.86,WNW,298,1.0,6.0,91,0.00,,---,0.01,VWS V14.01,2013-03-15 22:23:00,
2013-03-15 18:29:00,30.9,28.6,29.86,West,267,3.0,7.0,91,0.00,,---,0.01,VWS V14.01,2013-03-15 22:29:00,
2013-03-15 18:36:00,30.8,28.8,29.86,WNW,292,1.0,4.0,92,0.00,,---,0.01,VWS V14.01,2013-03-15 22:36:00,
2013-03-15 18:42:00,30.8,28.8,29.87,WSW,248,1.0,7.0,92,0.00,,---,0.01,VWS V14.01,2013-03-15 22:42:00,
2013-03-15 18:48:00,30.8,28.8,29.87,West,271,4.0,7.0,92,0.00,,---,0.01,VWS V14.01,2013-03-15 22:48:00,
2013-03-15 18:54:00,30.8,28.5,29.87,West,280,2.0,7.0,91,0.00,,---,0.01,VWS V14.01,2013-03-15 22:54:00,
2013-03-15 19:00:00,30.8,28.5,29.87,NW,307,2.0,7.0,91,0.00,,---,0.01,VWS V14.01,2013-03-15 23:00:00,
2013-03-15 19:06:00,30.8,28.5,29.87,WNW,292,1.0,5.0,91,0.00,,---,0.01,VWS V14.01,2013-03-15 23:06:00,
2013-03-15 19:12:00,30.8,28.5,29.87,WNW,286,0.0,8.0,91,0.00,,---,0.01,VWS V14.01,2013-03-15 23:12:00,
2013-03-15 19:18:00,30.7,28.4,29.87,West,269,2.0,8.0,91,0.00,,---,0.01,VWS V14.01,2013-03-15 23:18:00,
2013-03-15 19:24:00,30.7,28.4,29.88,WNW,284,4.0,8.0,91,0.00,,---,0.01,VWS V14.01,2013-03-15 23:24:00,
2013-03-15 19:30:00,30.7,28.4,29.88,West,280,1.0,8.0,91,0.00,,---,0.01,VWS V14.01,2013-03-15 23:30:00,
2013-03-15 19:37:00,30.6,28.6,29.88,West,281,1.0,4.0,92,0.00,,---,0.01,VWS V14.01,2013-03-15 23:37:00,
2013-03-15 19:43:00,30.6,28.6,29.89,WNW,286,0.0,5.0,92,0.00,,---,0.01,VWS V14.01,2013-03-15 23:43:00,
2013-03-15 19:49:00,30.5,28.5,29.89,West,272,2.0,5.0,92,0.00,,---,0.01,VWS V14.01,2013-03-15 23:49:00,
2013-03-15 19:55:00,30.5,28.5,29.89,WNW,287,4.0,5.0,92,0.00,,---,0.01,VWS V14.01,2013-03-15 23:55:00,
2013-03-15 20:01:00,30.5,28.5,29.88,West,272,2.0,5.0,92,0.00,,---,0.01,VWS V14.01,2013-03-16 00:01:00,
2013-03-15 20:07:00,30.4,28.4,29.88,WNW,283,0.0,4.0,92,0.00,,---,0.01,VWS V14.01,2013-03-16 00:07:00,
2013-03-15 20:13:00,30.4,28.4,29.88,West,273,0.0,6.0,92,0.00,,---,0.01,VWS V14.01,2013-03-16 00:13:00,
2013-03-15 20:19:00,30.4,28.4,29.88,West,277,2.0,6.0,92,0.00,,---,0.01,VWS V14.01,2013-03-16 00:19:00,
2013-03-15 20:25:00,30.4,28.4,29.89,West,277,3.0,6.0,92,0.00,,---,0.01,VWS V14.01,2013-03-16 00:25:00,
2013-03-15 20:31:00,30.4,28.4,29.88,West,259,1.0,6.0,92,0.00,,---,0.01,VWS V14.01,2013-03-16 00:31:00,
2013-03-15 20:37:00,30.4,28.4,29.88,NW,306,2.0,6.0,92,0.00,,---,0.01,VWS V14.01,2013-03-16 00:37:00,
2013-03-15 20:44:00,30.4,28.4,29.89,WNW,291,3.0,6.0,92,0.00,,---,0.01,VWS V14.01,2013-03-16 00:44:00,
2013-03-15 20:50:00,30.4,28.4,29.88,West,280,1.0,6.0,92,0.00,,---,0.01,VWS V14.01,2013-03-16 00:50:00,
2013-03-15 20:56:00,30.4,28.4,29.89,West,274,2.0,6.0,92,0.00,,---,0.01,VWS V14.01,2013-03-16 00:56:00,
2013-03-15 21:02:00,30.4,28.4,29.89,West,274,2.0,6.0,92,0.00,,---,0.01,VWS V14.01,2013-03-16 01:02:00,
2013-03-15 21:08:00,30.4,28.4,29.88,WNW,286,2.0,3.0,92,0.00,,---,0.01,VWS V14.01,2013-03-16 01:08:00,
2013-03-15 21:14:00,30.4,28.4,29.88,West,271,3.0,3.0,92,0.00,,---,0.01,VWS V14.01,2013-03-16 01:14:00,
2013-03-15 21:20:00,30.4,28.4,29.89,West,271,0.0,3.0,92,0.00,,---,0.01,VWS V14.01,2013-03-16 01:20:00,
2013-03-15 21:26:00,30.4,28.4,29.88,West,271,1.0,3.0,92,0.00,,---,0.01,VWS V14.01,2013-03-16 01:26:00,
2013-03-15 21:32:00,30.4,28.4,29.89,West,271,1.0,3.0,92,0.00,,---,0.01,VWS V14.01,2013-03-16 01:32:00,
2013-03-15 21:38:00,30.4,28.4,29.89,West,278,2.0,5.0,92,0.00,,---,0.01,VWS V14.01,2013-03-16 01:38:00,
2013-03-15 21:44:00,30.4,28.1,29.89,NW,318,2.0,5.0,91,0.00,,---,0.01,VWS V14.01,2013-03-16 01:44:00,
2013-03-15 21:50:00,30.5,28.2,29.89,WNW,282,3.0,6.0,91,0.00,,---,0.01,VWS V14.01,2013-03-16 01:50:00,
2013-03-15 21:57:00,30.5,28.2,29.89,WNW,302,2.0,6.0,91,0.00,,---,0.01,VWS V14.01,2013-03-16 01:57:00,
2013-03-15 22:02:00,30.5,28.2,29.89,West,259,2.0,6.0,91,0.00,,---,0.01,VWS V14.01,2013-03-16 02:02:00,
2013-03-15 22:07:00,30.5,28.2,29.88,NW,309,0.0,3.0,91,0.00,,---,0.01,VWS V14.01,2013-03-16 02:07:00,
2013-03-15 22:13:00,30.5,28.2,29.88,NW,309,1.0,3.0,91,0.00,,---,0.01,VWS V14.01,2013-03-16 02:13:00,
2013-03-15 22:19:00,30.5,28.2,29.89,West,275,0.0,3.0,91,0.00,,---,0.01,VWS V14.01,2013-03-16 02:19:00,
2013-03-15 22:25:00,30.5,28.2,29.88,West,275,2.0,3.0,91,0.00,,---,0.01,VWS V14.01,2013-03-16 02:25:00,
2013-03-15 22:31:00,30.4,28.1,29.88,West,275,1.0,3.0,91,0.00,,---,0.01,VWS V14.01,2013-03-16 02:31:00,
2013-03-15 22:37:00,30.4,28.4,29.88,West,275,0.0,2.0,92,0.00,,---,0.01,VWS V14.01,2013-03-16 02:37:00,
2013-03-15 22:44:00,30.3,28.3,29.88,WNW,284,3.0,3.0,92,0.00,,---,0.01,VWS V14.01,2013-03-16 02:44:00,
2013-03-15 22:50:00,30.2,27.9,29.88,West,266,0.0,4.0,91,0.00,,---,0.01,VWS V14.01,2013-03-16 02:50:00,
2013-03-15 22:56:00,30.1,28.1,29.89,West,266,0.0,4.0,92,0.00,,---,0.01,VWS V14.01,2013-03-16 02:56:00,
2013-03-15 23:02:00,30.1,28.1,29.88,West,266,2.0,4.0,92,0.00,,---,0.01,VWS V14.01,2013-03-16 03:02:00,
2013-03-15 23:08:00,30.0,27.7,29.88,West,265,1.0,3.0,91,0.00,,---,0.01,VWS V14.01,2013-03-16 03:08:00,
2013-03-15 23:14:00,29.9,27.6,29.88,West,266,0.0,3.0,91,0.00,,---,0.01,VWS V14.01,2013-03-16 03:14:00,
2013-03-15 23:20:00,29.9,27.6,29.88,West,267,0.0,3.0,91,0.00,,---,0.01,VWS V14.01,2013-03-16 03:20:00,
2013-03-15 23:26:00,29.8,27.5,29.88,West,267,0.0,3.0,91,0.00,,---,0.01,VWS V14.01,2013-03-16 03:26:00,
2013-03-15 23:32:00,29.8,27.5,29.88,West,267,0.0,3.0,91,0.00,,---,0.01,VWS V14.01,2013-03-16 03:32:00,
2013-03-15 23:38:00,29.8,27.5,29.88,West,265,0.0,1.0,91,0.00,,---,0.01,VWS V14.01,2013-03-16 03:38:00,
2013-03-15 23:44:00,29.7,27.4,29.88,West,266,0.0,1.0,91,0.00,,---,0.01,VWS V14.01,2013-03-16 03:44:00,
2013-03-15 23:50:00,29.7,27.4,29.88,West,267,0.0,1.0,91,0.00,,---,0.01,VWS V14.01,2013-03-16 03:50:00,
2013-03-15 23:56:00,29.6,27.3,29.88,West,267,0.0,1.0,91,0.00,,---,0.01,VWS V14.01,2013-03-16 03:56:00,